Czech — 9HA4003 — position and weather

sailwx.info

Track history (hours):
 
Tides and Currents Weather Stations Pressure Air Temp Water Temp Dewpoint Dewpoint Depression Visibility Wind Speed Wind Dir Waves Ship Positions

Czech

Last reported at 2017-Nov-12 09:21 UTC. Time now 2017-Nov-24 18:12 UTC.
Position N 30°34' E 122°12'.
Warning: this ship's position is 12 days out of date.

Length 298 m; draft 11.5 m.

Type: Ship (hazmat cat A). MMSI: 256771000.

Date/timePositionNaut miles runAvg speedWind from/ knotsBaromVisibWave heightAir tempDewpointWater temp
2017-Nov-12 09:21N 30°34' E 122°12'412.3
2017-Nov-12 09:00N 30°35' E 122°07'2 0.2
2017-Nov-11 17:21N 30°36' E 122°05'2 1.7
2017-Nov-11 16:21N 30°35' E 122°07'37 0.9
2017-Nov-09 21:42N 30°28' E 122°49'410.0
2017-Nov-09 21:20N 30°25' E 122°52'610.1
2017-Nov-09 20:45N 30°22' E 122°58'310.2
2017-Nov-09 20:29N 30°20' E 123°00'611.0
2017-Nov-09 19:58N 30°16' E 123°05'420 8.9
2017-Nov-07 21:00N 24°15' E 119°05'28 8.8
2017-Nov-07 17:49N 23°58' E 118°40'7 9.6
2017-Nov-07 17:03N 23°53' E 118°35'6 9.7
2017-Nov-07 16:24N 23°48' E 118°31'410.1
2017-Nov-07 16:00N 23°45' E 118°27'17212.4
2017-Nov-07 02:09N 22°14' E 115°48'215.3
2017-Nov-07 02:00N 22°14' E 115°46'815.4
2017-Nov-07 01:30N 22°13' E 115°38'915.1
2017-Nov-07 00:53N 22°13' E 115°27'615.1
2017-Nov-07 00:30N 22°13' E 115°21'815.2
2017-Nov-07 00:00N 22°13' E 115°13'815.2
2017-Nov-06 23:30N 22°13' E 115°05'815.3
2017-Nov-06 23:00N 22°13' E 114°57'815.2
2017-Nov-06 22:31N 22°12' E 114°48'815.3
2017-Nov-06 22:01N 22°12' E 114°40'714.7
2017-Nov-06 21:30N 22°17' E 114°34'816.4
2017-Nov-06 21:00N 22°24' E 114°30'613.0
2017-Nov-06 20:30N 22°30' E 114°26'10 0.6
2017-Nov-06 02:29N 22°34' E 114°16'0 0.0
2017-Nov-06 01:59N 22°34' E 114°16'0 0.0
2017-Nov-06 01:29N 22°34' E 114°16'0 0.0
2017-Nov-06 00:58N 22°34' E 114°16'0 0.0
2017-Nov-06 00:28N 22°34' E 114°16'0 0.0
2017-Nov-05 23:58N 22°34' E 114°16'0 0.0
2017-Nov-05 23:29N 22°34' E 114°16'0 0.0
2017-Nov-05 22:59N 22°34' E 114°16'2 3.7
2017-Nov-05 22:31N 22°34' E 114°18'713.7
2017-Nov-05 22:00N 22°31' E 114°25'611.1
2017-Nov-05 21:30N 22°26' E 114°28'612.8
2017-Nov-05 21:00N 22°20' E 114°29'611.4
2017-Nov-05 20:30N 22°14' E 114°28'510.8
2017-Nov-05 20:00N 22°10' E 114°25'510.5
2017-Nov-05 19:30N 22°07' E 114°20'1110.4
2017-Nov-05 18:26N 22°13' E 114°10'7 0.4
2017-Nov-04 22:44N 22°19' E 114°06'410.3
2017-Nov-04 22:20N 22°15' E 114°07'5 9.3
2017-Nov-04 21:48N 22°12' E 114°11'2 6.8
2017-Nov-04 21:29N 22°10' E 114°13'5 2.1
2017-Nov-04 19:09N 22°05' E 114°14'510.2
2017-Nov-04 18:41N 22°06' E 114°19'211.0
2017-Nov-04 18:30N 22°05' E 114°21'611.2
2017-Nov-04 18:00N 22°05' E 114°27'611.6
2017-Nov-04 17:30N 22°05' E 114°33'611.4
2017-Nov-04 17:00N 22°07' E 114°39'611.4
2017-Nov-04 16:29N 22°08' E 114°45'511.4
2017-Nov-04 16:00N 22°09' E 114°51'611.7
2017-Nov-04 15:30N 22°10' E 114°57'611.7
2017-Nov-04 15:00N 22°11' E 115°04'712.0
2017-Nov-04 14:25N 22°11' E 115°12'512.0
2017-Nov-04 13:59N 22°11' E 115°17'19912.8
2017-Nov-03 22:25N 24°01' E 118°17'613.9
2017-Nov-03 22:00N 24°07' E 118°19'612.3
2017-Nov-03 21:30N 24°13' E 118°17'612.8
2017-Nov-03 21:00N 24°18' E 118°13'713.0
2017-Nov-03 20:30N 24°22' E 118°08'612.5
2017-Nov-03 20:00N 24°26' E 118°02'2 3.0
2017-Nov-03 19:30N 24°27' E 118°01'0 0.0
2017-Nov-03 18:59N 24°27' E 118°01'0 0.0
2017-Nov-03 18:29N 24°27' E 118°01'0 0.0
2017-Nov-03 18:00N 24°27' E 118°01'0 0.0
2017-Nov-03 17:29N 24°27' E 118°01'0 0.0
2017-Nov-03 16:59N 24°27' E 118°01'0 0.0
2017-Nov-03 16:29N 24°27' E 118°01'0 0.0
2017-Nov-03 16:00N 24°27' E 118°01'0 0.0
2017-Nov-03 15:29N 24°27' E 118°01'0 0.0
2017-Nov-03 15:00N 24°27' E 118°01'0 0.0
2017-Nov-03 14:30N 24°27' E 118°01'0 0.0
2017-Nov-03 14:00N 24°27' E 118°01'0 0.0
2017-Nov-03 13:30N 24°27' E 118°01'0 0.0
2017-Nov-03 13:00N 24°27' E 118°01'0 0.0
2017-Nov-03 12:29N 24°27' E 118°01'0 0.0
2017-Nov-03 11:59N 24°27' E 118°01'0 0.0
2017-Nov-03 11:29N 24°27' E 118°01'0 0.0
2017-Nov-03 10:59N 24°27' E 118°01'0 0.0
2017-Nov-03 10:30N 24°27' E 118°01'0 0.0
2017-Nov-03 10:00N 24°27' E 118°01'0 0.0
2017-Nov-03 09:29N 24°27' E 118°01'0 0.0
2017-Nov-03 08:59N 24°27' E 118°01'0 0.0
2017-Nov-03 08:29N 24°27' E 118°01'0 0.0
2017-Nov-03 07:59N 24°27' E 118°01'0 0.0
2017-Nov-03 07:30N 24°27' E 118°01'0 0.0
2017-Nov-03 06:59N 24°27' E 118°01'0 0.0
2017-Nov-03 06:30N 24°27' E 118°01'0 0.0
2017-Nov-03 06:00N 24°27' E 118°01'0 0.0
2017-Nov-03 05:29N 24°27' E 118°01'0 0.0
2017-Nov-03 05:00N 24°27' E 118°01'1 1.6
2017-Nov-03 04:30N 24°26' E 118°02'510.7
2017-Nov-03 04:00N 24°24' E 118°07'611.1
2017-Nov-03 03:30N 24°20' E 118°11'4 8.8
2017-Nov-03 03:01N 24°16' E 118°14'611.6
2017-Nov-03 02:31N 24°12' E 118°18'714.1
2017-Nov-03 02:00N 24°06' E 118°23'815.3
2017-Nov-03 01:30N 23°59' E 118°27'  
Track history (hours):
 
Tides and Currents Weather Stations Pressure Air Temp Water Temp Dewpoint Dewpoint Depression Visibility Wind Speed Wind Dir Waves Ship Positions

Czech

Last reported at 2017-Nov-12 09:21 UTC. Time now 2017-Nov-24 18:12 UTC.
Position N 30°34' E 122°12'.
Warning: this ship's position is 12 days out of date.

Length 298 m; draft 11.5 m.

Type: Ship (hazmat cat A). MMSI: 256771000.

Date/timePositionNaut miles runAvg speedWind from/ knotsBaromVisibWave heightAir tempDewpointWater temp
2017-Nov-12 09:21N 30°34' E 122°12'412.3
2017-Nov-12 09:00N 30°35' E 122°07'2 0.2
2017-Nov-11 17:21N 30°36' E 122°05'2 1.7
2017-Nov-11 16:21N 30°35' E 122°07'37 0.9
2017-Nov-09 21:42N 30°28' E 122°49'410.0
2017-Nov-09 21:20N 30°25' E 122°52'610.1
2017-Nov-09 20:45N 30°22' E 122°58'310.2
2017-Nov-09 20:29N 30°20' E 123°00'611.0
2017-Nov-09 19:58N 30°16' E 123°05'420 8.9
2017-Nov-07 21:00N 24°15' E 119°05'28 8.8
2017-Nov-07 17:49N 23°58' E 118°40'7 9.6
2017-Nov-07 17:03N 23°53' E 118°35'6 9.7
2017-Nov-07 16:24N 23°48' E 118°31'410.1
2017-Nov-07 16:00N 23°45' E 118°27'17212.4
2017-Nov-07 02:09N 22°14' E 115°48'215.3
2017-Nov-07 02:00N 22°14' E 115°46'815.4
2017-Nov-07 01:30N 22°13' E 115°38'915.1
2017-Nov-07 00:53N 22°13' E 115°27'615.1
2017-Nov-07 00:30N 22°13' E 115°21'815.2
2017-Nov-07 00:00N 22°13' E 115°13'815.2
2017-Nov-06 23:30N 22°13' E 115°05'815.3
2017-Nov-06 23:00N 22°13' E 114°57'815.2
2017-Nov-06 22:31N 22°12' E 114°48'815.3
2017-Nov-06 22:01N 22°12' E 114°40'714.7
2017-Nov-06 21:30N 22°17' E 114°34'816.4
2017-Nov-06 21:00N 22°24' E 114°30'613.0
2017-Nov-06 20:30N 22°30' E 114°26'10 0.6
2017-Nov-06 02:29N 22°34' E 114°16'0 0.0
2017-Nov-06 01:59N 22°34' E 114°16'0 0.0
2017-Nov-06 01:29N 22°34' E 114°16'0 0.0
2017-Nov-06 00:58N 22°34' E 114°16'0 0.0
2017-Nov-06 00:28N 22°34' E 114°16'0 0.0
2017-Nov-05 23:58N 22°34' E 114°16'0 0.0
2017-Nov-05 23:29N 22°34' E 114°16'0 0.0
2017-Nov-05 22:59N 22°34' E 114°16'2 3.7
2017-Nov-05 22:31N 22°34' E 114°18'713.7
2017-Nov-05 22:00N 22°31' E 114°25'611.1
2017-Nov-05 21:30N 22°26' E 114°28'612.8
2017-Nov-05 21:00N 22°20' E 114°29'611.4
2017-Nov-05 20:30N 22°14' E 114°28'510.8
2017-Nov-05 20:00N 22°10' E 114°25'510.5
2017-Nov-05 19:30N 22°07' E 114°20'1110.4
2017-Nov-05 18:26N 22°13' E 114°10'7 0.4
2017-Nov-04 22:44N 22°19' E 114°06'410.3
2017-Nov-04 22:20N 22°15' E 114°07'5 9.3
2017-Nov-04 21:48N 22°12' E 114°11'2 6.8
2017-Nov-04 21:29N 22°10' E 114°13'5 2.1
2017-Nov-04 19:09N 22°05' E 114°14'510.2
2017-Nov-04 18:41N 22°06' E 114°19'211.0
2017-Nov-04 18:30N 22°05' E 114°21'611.2
2017-Nov-04 18:00N 22°05' E 114°27'611.6
2017-Nov-04 17:30N 22°05' E 114°33'611.4
2017-Nov-04 17:00N 22°07' E 114°39'611.4
2017-Nov-04 16:29N 22°08' E 114°45'511.4
2017-Nov-04 16:00N 22°09' E 114°51'611.7
2017-Nov-04 15:30N 22°10' E 114°57'611.7
2017-Nov-04 15:00N 22°11' E 115°04'712.0
2017-Nov-04 14:25N 22°11' E 115°12'512.0
2017-Nov-04 13:59N 22°11' E 115°17'19912.8
2017-Nov-03 22:25N 24°01' E 118°17'613.9
2017-Nov-03 22:00N 24°07' E 118°19'612.3
2017-Nov-03 21:30N 24°13' E 118°17'612.8
2017-Nov-03 21:00N 24°18' E 118°13'713.0
2017-Nov-03 20:30N 24°22' E 118°08'612.5
2017-Nov-03 20:00N 24°26' E 118°02'2 3.0
2017-Nov-03 19:30N 24°27' E 118°01'0 0.0
2017-Nov-03 18:59N 24°27' E 118°01'0 0.0
2017-Nov-03 18:29N 24°27' E 118°01'0 0.0
2017-Nov-03 18:00N 24°27' E 118°01'0 0.0
2017-Nov-03 17:29N 24°27' E 118°01'0 0.0
2017-Nov-03 16:59N 24°27' E 118°01'0 0.0
2017-Nov-03 16:29N 24°27' E 118°01'0 0.0
2017-Nov-03 16:00N 24°27' E 118°01'0 0.0
2017-Nov-03 15:29N 24°27' E 118°01'0 0.0
2017-Nov-03 15:00N 24°27' E 118°01'0 0.0
2017-Nov-03 14:30N 24°27' E 118°01'0 0.0
2017-Nov-03 14:00N 24°27' E 118°01'0 0.0
2017-Nov-03 13:30N 24°27' E 118°01'0 0.0
2017-Nov-03 13:00N 24°27' E 118°01'0 0.0
2017-Nov-03 12:29N 24°27' E 118°01'0 0.0
2017-Nov-03 11:59N 24°27' E 118°01'0 0.0
2017-Nov-03 11:29N 24°27' E 118°01'0 0.0
2017-Nov-03 10:59N 24°27' E 118°01'0 0.0
2017-Nov-03 10:30N 24°27' E 118°01'0 0.0
2017-Nov-03 10:00N 24°27' E 118°01'0 0.0
2017-Nov-03 09:29N 24°27' E 118°01'0 0.0
2017-Nov-03 08:59N 24°27' E 118°01'0 0.0
2017-Nov-03 08:29N 24°27' E 118°01'0 0.0
2017-Nov-03 07:59N 24°27' E 118°01'0 0.0
2017-Nov-03 07:30N 24°27' E 118°01'0 0.0
2017-Nov-03 06:59N 24°27' E 118°01'0 0.0
2017-Nov-03 06:30N 24°27' E 118°01'0 0.0
2017-Nov-03 06:00N 24°27' E 118°01'0 0.0
2017-Nov-03 05:29N 24°27' E 118°01'0 0.0
2017-Nov-03 05:00N 24°27' E 118°01'1 1.6
2017-Nov-03 04:30N 24°26' E 118°02'510.7
2017-Nov-03 04:00N 24°24' E 118°07'611.1
2017-Nov-03 03:30N 24°20' E 118°11'4 8.8
2017-Nov-03 03:01N 24°16' E 118°14'611.6
2017-Nov-03 02:31N 24°12' E 118°18'714.1
2017-Nov-03 02:00N 24°06' E 118°23'815.3
2017-Nov-03 01:30N 23°59' E 118°27'  

Dump ship's entire track history